Time;durP1;ratioP1;P1;durP2;ratioP2;P2;SDS_P1;SDS_P2;PMS_P1;PMS_P2;Temp;Humidity;BMP_temperature;BMP_pressure;BME280_temperature;BME280_humidity;BME280_pressure;Samples;Min_cycle;Max_cycle;Signal;HPM_P1;HPM_P2
2023/09/25 00:00:19;;;;;;;1999.90;999.90;;;;;;;;;;4985857;28;20205;-68
2023/09/25 00:02:47;;;;;;;1999.90;999.90;;;;;;;;;;4986594;28;20185;-67
2023/09/25 00:05:16;;;;;;;1999.90;999.90;;;;;;;;;;4986228;28;20209;-65
2023/09/25 00:07:43;;;;;;;1999.90;999.90;;;;;;;;;;4985903;28;20204;-64
2023/09/25 00:10:11;;;;;;;1999.90;999.90;;;;;;;;;;4986677;28;20634;-68
2023/09/25 00:12:38;;;;;;;1999.90;999.90;;;;;;;;;;4968494;28;20253;-70
2023/09/25 00:15:07;;;;;;;1999.90;999.90;;;;;;;;;;4987308;28;20630;-61
2023/09/25 00:17:35;;;;;;;1999.90;999.90;;;;;;;;;;4990102;28;20252;-68
2023/09/25 00:20:04;;;;;;;1999.90;999.90;;;;;;;;;;4990539;28;20213;-64
2023/09/25 00:22:31;;;;;;;1999.90;999.90;;;;;;;;;;4990318;28;20260;-68
2023/09/25 00:24:59;;;;;;;1999.90;999.90;;;;;;;;;;4989773;28;20259;-62
2023/09/25 00:27:27;;;;;;;1999.90;999.90;;;;;;;;;;4990043;28;20197;-65
2023/09/25 00:29:54;;;;;;;1999.90;999.90;;;;;;;;;;4989855;28;20591;-66
2023/09/25 00:32:21;;;;;;;1999.90;999.90;;;;;;;;;;4990383;28;20204;-63
2023/09/25 00:34:50;;;;;;;1999.90;999.90;;;;;;;;;;4990119;28;20664;-66
2023/09/25 00:37:17;;;;;;;1999.90;999.90;;;;;;;;;;4989667;28;20201;-63
2023/09/25 00:39:44;;;;;;;1999.90;999.90;;;;;;;;;;4989862;28;20237;-69
2023/09/25 00:42:12;;;;;;;1999.90;999.90;;;;;;;;;;4989425;28;20194;-62
2023/09/25 00:44:39;;;;;;;1999.90;999.90;;;;;;;;;;4990625;28;20193;-64
2023/09/25 00:47:08;;;;;;;1999.90;999.90;;;;;;;;;;4971392;28;20207;-67
2023/09/25 00:49:36;;;;;;;1999.90;999.90;;;;;;;;;;4990182;28;20225;-66
2023/09/25 00:52:07;;;;;;;1999.90;999.90;;;;;;;;;;4989856;28;20197;-66
2023/09/25 00:54:34;;;;;;;1999.90;999.90;;;;;;;;;;4990335;28;20220;-66
2023/09/25 00:57:02;;;;;;;1999.90;999.90;;;;;;;;;;4989860;28;20198;-67
2023/09/25 00:59:30;;;;;;;1999.90;999.90;;;;;;;;;;4988591;28;20182;-66
2023/09/25 01:01:57;;;;;;;1999.90;999.90;;;;;;;;;;4990529;28;20208;-65
2023/09/25 01:04:25;;;;;;;1999.90;999.90;;;;;;;;;;4988576;28;20197;-66
2023/09/25 01:06:53;;;;;;;1999.90;999.90;;;;;;;;;;4989667;28;20198;-72
2023/09/25 01:09:21;;;;;;;1999.90;999.90;;;;;;;;;;4989141;28;20201;-65
2023/09/25 01:11:49;;;;;;;1999.90;999.90;;;;;;;;;;4989931;28;20204;-65
2023/09/25 01:14:16;;;;;;;1999.90;999.90;;;;;;;;;;4989232;28;20208;-67
2023/09/25 01:16:43;;;;;;;1999.90;999.90;;;;;;;;;;4989160;28;20277;-64
2023/09/25 01:19:11;;;;;;;1999.90;999.90;;;;;;;;;;4989890;28;20213;-66
2023/09/25 01:21:38;;;;;;;1999.90;999.90;;;;;;;;;;4988298;28;20217;-63
2023/09/25 01:24:07;;;;;;;1999.90;999.90;;;;;;;;;;4988593;28;20210;-66
2023/09/25 01:26:35;;;;;;;1999.90;999.90;;;;;;;;;;4988106;28;20649;-67
2023/09/25 01:29:03;;;;;;;1999.90;999.90;;;;;;;;;;4989762;28;20225;-65
2023/09/25 01:31:30;;;;;;;1999.90;999.90;;;;;;;;;;4989124;28;20201;-61
2023/09/25 01:33:57;;;;;;;1999.90;999.90;;;;;;;;;;4988855;28;20197;-67
2023/09/25 01:36:25;;;;;;;1999.90;999.90;;;;;;;;;;4971326;28;20202;-64
2023/09/25 01:38:52;;;;;;;1999.90;999.90;;;;;;;;;;4988192;28;20224;-66
2023/09/25 01:41:22;;;;;;;1999.90;999.90;;;;;;;;;;4988640;28;20241;-67
2023/09/25 01:43:51;;;;;;;1999.90;999.90;;;;;;;;;;4987646;28;20563;-68
2023/09/25 01:46:18;;;;;;;1999.90;999.90;;;;;;;;;;4988744;28;20272;-65
2023/09/25 01:48:45;;;;;;;1999.90;999.90;;;;;;;;;;4989334;28;20653;-65
2023/09/25 01:51:13;;;;;;;1999.90;999.90;;;;;;;;;;4987514;28;20198;-67
2023/09/25 01:53:40;;;;;;;1999.90;999.90;;;;;;;;;;4988325;28;20579;-66
2023/09/25 01:56:11;;;;;;;1999.90;999.90;;;;;;;;;;4988311;28;20653;-62
2023/09/25 01:58:41;;;;;;;1999.90;999.90;;;;;;;;;;4988899;28;20557;-63
2023/09/25 02:01:08;;;;;;;1999.90;999.90;;;;;;;;;;4987991;28;20693;-62
2023/09/25 02:03:35;;;;;;;1999.90;999.90;;;;;;;;;;4971083;28;20229;-66
2023/09/25 02:06:04;;;;;;;1999.90;999.90;;;;;;;;;;4988696;28;20657;-65
2023/09/25 02:08:31;;;;;;;1999.90;999.90;;;;;;;;;;4987790;28;20205;-66
2023/09/25 02:10:58;;;;;;;1999.90;999.90;;;;;;;;;;4971377;28;20217;-69
2023/09/25 02:13:26;;;;;;;1999.90;999.90;;;;;;;;;;4969799;28;20189;-62
2023/09/25 02:15:54;;;;;;;1999.90;999.90;;;;;;;;;;4989218;28;20566;-66
2023/09/25 02:18:22;;;;;;;1999.90;999.90;;;;;;;;;;4987423;28;20222;-65
2023/09/25 02:20:50;;;;;;;1999.90;999.90;;;;;;;;;;4987792;28;20218;-69
2023/09/25 02:23:18;;;;;;;1999.90;999.90;;;;;;;;;;4986331;28;20202;-66
2023/09/25 02:25:46;;;;;;;1999.90;999.90;;;;;;;;;;4984107;28;20203;-63
2023/09/25 02:28:13;;;;;;;1999.90;999.90;;;;;;;;;;4976820;28;20285;-67
2023/09/25 02:30:40;;;;;;;1999.90;999.90;;;;;;;;;;4976156;28;20194;-63
2023/09/25 02:33:10;;;;;;;1999.90;999.90;;;;;;;;;;4978341;28;20210;-69
2023/09/25 02:35:37;;;;;;;1999.90;999.90;;;;;;;;;;4977619;28;20348;-70
2023/09/25 02:38:06;;;;;;;1999.90;999.90;;;;;;;;;;4979139;28;20194;-67
2023/09/25 02:40:33;;;;;;;1999.90;999.90;;;;;;;;;;4976104;28;20683;-68
2023/09/25 02:43:01;;;;;;;1999.90;999.90;;;;;;;;;;4957580;28;20191;-67
2023/09/25 02:45:28;;;;;;;1999.90;999.90;;;;;;;;;;4986373;28;20755;-66
2023/09/25 02:47:55;;;;;;;1999.90;999.90;;;;;;;;;;4986301;28;20205;-68
2023/09/25 02:50:24;;;;;;;1999.90;999.90;;;;;;;;;;4987919;28;20551;-63
2023/09/25 02:52:51;;;;;;;1999.90;999.90;;;;;;;;;;4987004;28;20198;-70
2023/09/25 02:55:22;;;;;;;1999.90;999.90;;;;;;;;;;4986437;28;20620;-71
2023/09/25 02:57:49;;;;;;;1999.90;999.90;;;;;;;;;;4979191;28;20185;-63
2023/09/25 03:00:17;;;;;;;1999.90;999.90;;;;;;;;;;4987670;28;20270;-65
2023/09/25 03:02:44;;;;;;;1999.90;999.90;;;;;;;;;;4986980;28;20537;-66
2023/09/25 03:05:11;;;;;;;1999.90;999.90;;;;;;;;;;4987072;28;20198;-66
2023/09/25 03:07:40;;;;;;;1999.90;999.90;;;;;;;;;;4987702;28;20197;-70
2023/09/25 03:10:08;;;;;;;1999.90;999.90;;;;;;;;;;4986645;28;20671;-66
2023/09/25 03:12:35;;;;;;;1999.90;999.90;;;;;;;;;;4987307;28;20198;-65
2023/09/25 03:15:05;;;;;;;1999.90;999.90;;;;;;;;;;4986768;28;20196;-68
2023/09/25 03:17:32;;;;;;;1999.90;999.90;;;;;;;;;;4987052;28;20212;-65
2023/09/25 03:20:00;;;;;;;1999.90;999.90;;;;;;;;;;4984213;28;20195;-65
2023/09/25 03:22:27;;;;;;;1999.90;999.90;;;;;;;;;;4975588;28;20392;-64
2023/09/25 03:24:57;;;;;;;1999.90;999.90;;;;;;;;;;4975853;28;20200;-65
2023/09/25 03:27:24;;;;;;;1999.90;999.90;;;;;;;;;;4966861;28;20190;-65
2023/09/25 03:29:51;;;;;;;1999.90;999.90;;;;;;;;;;4968223;28;20198;-63
2023/09/25 03:32:18;;;;;;;1999.90;999.90;;;;;;;;;;4967191;28;20195;-68
2023/09/25 03:34:46;;;;;;;1999.90;999.90;;;;;;;;;;4975354;28;20198;-62
2023/09/25 03:37:13;;;;;;;1999.90;999.90;;;;;;;;;;4987175;28;20201;-71
2023/09/25 03:39:40;;;;;;;1999.90;999.90;;;;;;;;;;4985945;28;20197;-62
2023/09/25 03:42:09;;;;;;;1999.90;999.90;;;;;;;;;;4986411;28;20224;-65
2023/09/25 03:44:36;;;;;;;1999.90;999.90;;;;;;;;;;4985822;28;20201;-70
2023/09/25 03:47:03;;;;;;;1999.90;999.90;;;;;;;;;;4987665;28;20205;-63
2023/09/25 03:49:31;;;;;;;1999.90;999.90;;;;;;;;;;4984881;28;20205;-64
2023/09/25 03:51:58;;;;;;;1999.90;999.90;;;;;;;;;;4986310;28;20201;-63
2023/09/25 03:54:25;;;;;;;1999.90;999.90;;;;;;;;;;4986046;28;20209;-68
2023/09/25 03:56:52;;;;;;;1999.90;999.90;;;;;;;;;;4981379;28;20201;-67
2023/09/25 03:59:21;;;;;;;1999.90;999.90;;;;;;;;;;4969103;28;20201;-69
2023/09/25 04:01:49;;;;;;;1999.90;999.90;;;;;;;;;;4985945;28;20569;-64
2023/09/25 04:04:16;;;;;;;1999.90;999.90;;;;;;;;;;4986620;28;20200;-65
2023/09/25 04:06:43;;;;;;;1999.90;999.90;;;;;;;;;;4985916;28;20233;-70
2023/09/25 04:09:11;;;;;;;1999.90;999.90;;;;;;;;;;4987124;28;20205;-67
2023/09/25 04:11:38;;;;;;;1999.90;999.90;;;;;;;;;;4985838;28;20236;-68
2023/09/25 04:14:06;;;;;;;1999.90;999.90;;;;;;;;;;4986421;28;20193;-64
2023/09/25 04:16:34;;;;;;;1999.90;999.90;;;;;;;;;;4986453;28;20201;-66
2023/09/25 04:19:04;;;;;;;1999.90;999.90;;;;;;;;;;4986392;28;20620;-67
2023/09/25 04:21:32;;;;;;;1999.90;999.90;;;;;;;;;;4986947;28;20297;-66
2023/09/25 04:24:01;;;;;;;1999.90;999.90;;;;;;;;;;4984383;28;20992;-68
2023/09/25 04:26:29;;;;;;;1999.90;999.90;;;;;;;;;;4986856;28;20275;-72
2023/09/25 04:28:57;;;;;;;1999.90;999.90;;;;;;;;;;4985885;28;20202;-64
2023/09/25 04:31:24;;;;;;;1999.90;999.90;;;;;;;;;;4986286;28;20224;-63
2023/09/25 04:33:53;;;;;;;1999.90;999.90;;;;;;;;;;4985767;28;20541;-64
2023/09/25 04:36:23;;;;;;;1999.90;999.90;;;;;;;;;;4985960;28;20193;-68
2023/09/25 04:38:51;;;;;;;1999.90;999.90;;;;;;;;;;4986622;28;20327;-69
2023/09/25 04:41:18;;;;;;;1999.90;999.90;;;;;;;;;;4985710;28;20724;-66
2023/09/25 04:43:45;;;;;;;1999.90;999.90;;;;;;;;;;4985906;28;20193;-69
2023/09/25 04:46:13;;;;;;;1999.90;999.90;;;;;;;;;;4984160;28;20683;-64
2023/09/25 04:48:40;;;;;;;1999.90;999.90;;;;;;;;;;4985830;28;20201;-69
2023/09/25 04:51:09;;;;;;;1999.90;999.90;;;;;;;;;;4985043;28;20202;-70
2023/09/25 04:53:37;;;;;;;1999.90;999.90;;;;;;;;;;4984147;28;20565;-70
2023/09/25 04:56:05;;;;;;;1999.90;999.90;;;;;;;;;;4984698;28;20213;-70
2023/09/25 04:58:32;;;;;;;1999.90;999.90;;;;;;;;;;4985635;28;20657;-72
2023/09/25 05:00:59;;;;;;;1999.90;999.90;;;;;;;;;;4986113;28;20731;-67
2023/09/25 05:03:27;;;;;;;1999.90;999.90;;;;;;;;;;4987875;28;20209;-70
2023/09/25 05:05:54;;;;;;;1999.90;999.90;;;;;;;;;;4989317;28;20192;-71
2023/09/25 05:08:23;;;;;;;1999.90;999.90;;;;;;;;;;4990034;28;20199;-73
2023/09/25 05:10:50;;;;;;;1999.90;999.90;;;;;;;;;;4989055;28;20208;-66
2023/09/25 05:13:18;;;;;;;1999.90;999.90;;;;;;;;;;4989958;28;20224;-71
2023/09/25 05:15:45;;;;;;;1999.90;999.90;;;;;;;;;;4988161;28;20649;-62
2023/09/25 05:18:12;;;;;;;1999.90;999.90;;;;;;;;;;4989940;28;20204;-72
2023/09/25 05:20:40;;;;;;;1999.90;999.90;;;;;;;;;;4989111;28;20213;-66
2023/09/25 05:23:07;;;;;;;1999.90;999.90;;;;;;;;;;4989096;28;20221;-66
2023/09/25 05:25:36;;;;;;;1999.90;999.90;;;;;;;;;;4989578;28;20223;-66
2023/09/25 05:28:04;;;;;;;1999.90;999.90;;;;;;;;;;4989148;28;20205;-66
2023/09/25 05:30:32;;;;;;;1999.90;999.90;;;;;;;;;;4989742;28;20592;-70
2023/09/25 05:32:59;;;;;;;1999.90;999.90;;;;;;;;;;4987836;28;20219;-62
2023/09/25 05:35:26;;;;;;;1999.90;999.90;;;;;;;;;;4989426;28;20205;-71
2023/09/25 05:37:54;;;;;;;1999.90;999.90;;;;;;;;;;4988401;28;20220;-65
2023/09/25 05:40:21;;;;;;;1999.90;999.90;;;;;;;;;;4988911;28;20234;-69
2023/09/25 05:42:50;;;;;;;1999.90;999.90;;;;;;;;;;4988246;28;20251;-69
2023/09/25 05:45:20;;;;;;;1999.90;999.90;;;;;;;;;;4988528;28;20197;-69
2023/09/25 05:47:47;;;;;;;1999.90;999.90;;;;;;;;;;4989052;28;20194;-70
2023/09/25 05:50:15;;;;;;;1999.90;999.90;;;;;;;;;;4988241;28;20194;-71
2023/09/25 05:52:42;;;;;;;1999.90;999.90;;;;;;;;;;4989193;28;20204;-70
2023/09/25 05:55:10;;;;;;;1999.90;999.90;;;;;;;;;;4988476;28;20209;-68
2023/09/25 05:57:37;;;;;;;1999.90;999.90;;;;;;;;;;4989147;28;20201;-66
2023/09/25 06:00:11;;;;;;;1999.90;999.90;;;;;;;;;;4987717;28;20210;-67
2023/09/25 06:02:38;;;;;;;1999.90;999.90;;;;;;;;;;4988229;28;20212;-65
2023/09/25 06:05:06;;;;;;;1999.90;999.90;;;;;;;;;;4987411;28;20201;-68
2023/09/25 06:07:33;;;;;;;1999.90;999.90;;;;;;;;;;4988452;28;20193;-66
2023/09/25 06:10:01;;;;;;;1999.90;999.90;;;;;;;;;;4988458;28;20664;-65
2023/09/25 06:12:28;;;;;;;1999.90;999.90;;;;;;;;;;4987319;28;20727;-72
2023/09/25 06:14:56;;;;;;;1999.90;999.90;;;;;;;;;;4970244;28;20201;-71
2023/09/25 06:17:26;;;;;;;1999.90;999.90;;;;;;;;;;4988315;28;20200;-64
2023/09/25 06:19:54;;;;;;;1999.90;999.90;;;;;;;;;;4987890;28;20186;-68
2023/09/25 06:22:22;;;;;;;1999.90;999.90;;;;;;;;;;4988175;28;20680;-68
2023/09/25 06:24:50;;;;;;;1999.90;999.90;;;;;;;;;;4987593;28;20251;-69
2023/09/25 06:27:17;;;;;;;1999.90;999.90;;;;;;;;;;4988766;28;20688;-68
2023/09/25 06:29:45;;;;;;;1999.90;999.90;;;;;;;;;;4969989;28;20206;-72
2023/09/25 06:32:12;;;;;;;1999.90;999.90;;;;;;;;;;4985863;28;20198;-63
2023/09/25 06:34:41;;;;;;;1999.90;999.90;;;;;;;;;;4986503;28;20672;-68
2023/09/25 06:37:08;;;;;;;1999.90;999.90;;;;;;;;;;4987656;28;20205;-69
2023/09/25 06:39:35;;;;;;;1999.90;999.90;;;;;;;;;;4988524;28;20584;-70
2023/09/25 06:42:03;;;;;;;1999.90;999.90;;;;;;;;;;4986956;28;20691;-64
2023/09/25 06:44:30;;;;;;;1999.90;999.90;;;;;;;;;;4988619;28;20264;-65
2023/09/25 06:46:58;;;;;;;1999.90;999.90;;;;;;;;;;4985526;28;20198;-66
2023/09/25 06:49:25;;;;;;;1999.90;999.90;;;;;;;;;;4988712;28;20201;-62
2023/09/25 06:51:54;;;;;;;1999.90;999.90;;;;;;;;;;4986888;28;20952;-71
2023/09/25 06:54:21;;;;;;;1999.90;999.90;;;;;;;;;;4987301;28;20185;-68
2023/09/25 06:56:49;;;;;;;1999.90;999.90;;;;;;;;;;4986068;28;20201;-65
2023/09/25 06:59:17;;;;;;;1999.90;999.90;;;;;;;;;;4987033;28;20210;-62
2023/09/25 07:01:45;;;;;;;1999.90;999.90;;;;;;;;;;4987512;28;20693;-62
2023/09/25 07:04:12;;;;;;;1999.90;999.90;;;;;;;;;;4986285;28;20194;-67
2023/09/25 07:06:39;;;;;;;1999.90;999.90;;;;;;;;;;4988332;28;20198;-69
2023/09/25 07:09:09;;;;;;;1999.90;999.90;;;;;;;;;;4986323;28;20205;-60
2023/09/25 07:11:37;;;;;;;1999.90;999.90;;;;;;;;;;4987283;28;20198;-59
2023/09/25 07:14:04;;;;;;;1999.90;999.90;;;;;;;;;;4986927;28;20257;-60
2023/09/25 07:16:31;;;;;;;1999.90;999.90;;;;;;;;;;4983900;28;20197;-58
2023/09/25 07:18:59;;;;;;;1999.90;999.90;;;;;;;;;;4984657;28;20257;-61
2023/09/25 07:21:27;;;;;;;1999.90;999.90;;;;;;;;;;4986230;28;20341;-59
2023/09/25 07:23:54;;;;;;;1999.90;999.90;;;;;;;;;;4986880;28;20222;-59
2023/09/25 07:26:23;;;;;;;1999.90;999.90;;;;;;;;;;4986632;28;20216;-59
2023/09/25 07:28:50;;;;;;;1999.90;999.90;;;;;;;;;;4987466;28;20207;-60
2023/09/25 07:31:22;;;;;;;1999.90;999.90;;;;;;;;;;4986634;28;20199;-61
2023/09/25 07:33:49;;;;;;;1999.90;999.90;;;;;;;;;;4986531;28;20195;-59
2023/09/25 07:36:20;;;;;;;1999.90;999.90;;;;;;;;;;4968878;28;20205;-59
2023/09/25 07:38:47;;;;;;;1999.90;999.90;;;;;;;;;;4985904;28;20278;-60
2023/09/25 07:41:14;;;;;;;1999.90;999.90;;;;;;;;;;4984918;28;20245;-60
2023/09/25 07:43:43;;;;;;;1999.90;999.90;;;;;;;;;;4985619;28;20221;-60
2023/09/25 07:46:10;;;;;;;1999.90;999.90;;;;;;;;;;4986397;28;20201;-58
2023/09/25 07:48:38;;;;;;;1999.90;999.90;;;;;;;;;;4986387;28;20247;-60
2023/09/25 07:51:07;;;;;;;1999.90;999.90;;;;;;;;;;4986089;28;20244;-59
2023/09/25 07:53:34;;;;;;;1999.90;999.90;;;;;;;;;;4978002;28;20296;-60
2023/09/25 07:56:02;;;;;;;1999.90;999.90;;;;;;;;;;4975686;28;20281;-63
2023/09/25 07:58:30;;;;;;;1999.90;999.90;;;;;;;;;;4975041;28;20260;-60
2023/09/25 08:01:05;;;;;;;1999.90;999.90;;;;;;;;;;4975786;28;20198;-58
2023/09/25 08:03:32;;;;;;;1999.90;999.90;;;;;;;;;;4982338;28;20283;-59
2023/09/25 08:06:05;;;;;;;1999.90;999.90;;;;;;;;;;4986188;28;20276;-60
2023/09/25 08:08:32;;;;;;;1999.90;999.90;;;;;;;;;;4985838;28;20269;-61
2023/09/25 08:10:59;;;;;;;1999.90;999.90;;;;;;;;;;4986117;28;20201;-58
2023/09/25 08:13:26;;;;;;;1999.90;999.90;;;;;;;;;;4984931;28;20194;-57
2023/09/25 08:15:54;;;;;;;1999.90;999.90;;;;;;;;;;4986802;28;20258;-60
2023/09/25 08:18:23;;;;;;;1999.90;999.90;;;;;;;;;;4967697;28;20201;-61
2023/09/25 08:20:51;;;;;;;1999.90;999.90;;;;;;;;;;4986304;28;20193;-62
2023/09/25 08:23:18;;;;;;;1999.90;999.90;;;;;;;;;;4985455;28;20228;-62
2023/09/25 08:25:45;;;;;;;1999.90;999.90;;;;;;;;;;4985931;28;20670;-62
2023/09/25 08:28:13;;;;;;;1999.90;999.90;;;;;;;;;;4985827;28;20201;-61
2023/09/25 08:30:41;;;;;;;1999.90;999.90;;;;;;;;;;4985469;28;20601;-60
2023/09/25 08:33:08;;;;;;;1999.90;999.90;;;;;;;;;;4985877;28;20559;-61
2023/09/25 08:35:37;;;;;;;1999.90;999.90;;;;;;;;;;4985544;28;20654;-59
2023/09/25 08:38:04;;;;;;;1999.90;999.90;;;;;;;;;;4989197;28;20268;-60
2023/09/25 08:40:32;;;;;;;1999.90;999.90;;;;;;;;;;4972067;28;20543;-60
2023/09/25 08:43:00;;;;;;;1999.90;999.90;;;;;;;;;;4988933;28;20236;-62
2023/09/25 08:45:27;;;;;;;1999.90;999.90;;;;;;;;;;4990120;28;20558;-60
2023/09/25 08:47:55;;;;;;;1999.90;999.90;;;;;;;;;;4989241;28;20193;-60
2023/09/25 08:50:24;;;;;;;1999.90;999.90;;;;;;;;;;4989775;28;20197;-59
2023/09/25 08:52:55;;;;;;;1999.90;999.90;;;;;;;;;;4988245;28;20657;-59
2023/09/25 08:55:23;;;;;;;1999.90;999.90;;;;;;;;;;4989320;28;20289;-61
2023/09/25 08:57:51;;;;;;;1999.90;999.90;;;;;;;;;;4989620;28;20272;-60
2023/09/25 09:00:18;;;;;;;1999.90;999.90;;;;;;;;;;4988766;28;20190;-59
2023/09/25 09:02:46;;;;;;;1999.90;999.90;;;;;;;;;;4989487;28;20224;-59
2023/09/25 09:05:14;;;;;;;1999.90;999.90;;;;;;;;;;4988372;28;20201;-60
2023/09/25 09:07:56;;;;;;;1999.90;999.90;;;;;;;;;;4989729;28;20209;-59
2023/09/25 09:10:25;;;;;;;1999.90;999.90;;;;;;;;;;4988512;28;20182;-61
2023/09/25 09:12:54;;;;;;;1999.90;999.90;;;;;;;;;;4989216;28;20201;-62
2023/09/25 09:15:26;;;;;;;1999.90;999.90;;;;;;;;;;4989106;28;20202;-59
2023/09/25 09:17:54;;;;;;;1999.90;999.90;;;;;;;;;;4988890;28;20221;-60
2023/09/25 09:20:22;;;;;;;1999.90;999.90;;;;;;;;;;4989123;28;20205;-61
2023/09/25 09:22:53;;;;;;;1999.90;999.90;;;;;;;;;;4988155;28;20287;-60
2023/09/25 09:25:22;;;;;;;1999.90;999.90;;;;;;;;;;4989333;28;20190;-62
2023/09/25 09:27:50;;;;;;;1999.90;999.90;;;;;;;;;;4988710;28;20322;-59
2023/09/25 09:30:22;;;;;;;1999.90;999.90;;;;;;;;;;4988918;28;20201;-60
2023/09/25 09:32:50;;;;;;;1999.90;999.90;;;;;;;;;;4988616;28;20201;-59
2023/09/25 09:35:22;;;;;;;1999.90;999.90;;;;;;;;;;4988320;28;20236;-61
2023/09/25 09:37:52;;;;;;;1999.90;999.90;;;;;;;;;;4989412;28;20198;-62
2023/09/25 09:40:20;;;;;;;1999.90;999.90;;;;;;;;;;4988252;28;20197;-61
2023/09/25 09:42:50;;;;;;;1999.90;999.90;;;;;;;;;;4988800;28;20233;-62
2023/09/25 09:45:19;;;;;;;1999.90;999.90;;;;;;;;;;4969314;28;20215;-61
2023/09/25 09:47:47;;;;;;;1999.90;999.90;;;;;;;;;;4968216;28;20195;-61
2023/09/25 09:50:15;;;;;;;1999.90;999.90;;;;;;;;;;4968866;28;20194;-62
2023/09/25 09:52:43;;;;;;;1999.90;999.90;;;;;;;;;;4975892;28;20521;-62
2023/09/25 09:55:12;;;;;;;1999.90;999.90;;;;;;;;;;4987547;28;20212;-61
2023/09/25 09:57:40;;;;;;;1999.90;999.90;;;;;;;;;;4970397;28;20627;-62
2023/09/25 10:00:08;;;;;;;1999.90;999.90;;;;;;;;;;4988482;28;20198;-62
2023/09/25 10:02:37;;;;;;;1999.90;999.90;;;;;;;;;;4987719;28;20229;-62
2023/09/25 10:05:05;;;;;;;1999.90;999.90;;;;;;;;;;4986795;28;20209;-61
2023/09/25 10:07:33;;;;;;;1999.90;999.90;;;;;;;;;;4988136;28;20715;-62
2023/09/25 10:10:05;;;;;;;1999.90;999.90;;;;;;;;;;4986290;28;20202;-61
2023/09/25 10:12:40;;;;;;;1999.90;999.90;;;;;;;;;;4983271;28;20222;-60
2023/09/25 10:15:11;;;;;;;1999.90;999.90;;;;;;;;;;4950887;28;20200;-61
2023/09/25 10:17:41;;;;;;;1999.90;999.90;;;;;;;;;;4969075;28;20289;-62
2023/09/25 10:20:24;;;;;;;1999.90;999.90;;;;;;;;;;4968433;28;20202;-61
2023/09/25 10:22:52;;;;;;;1999.90;999.90;;;;;;;;;;4967446;28;20245;-61
2023/09/25 10:25:19;;;;;;;1999.90;999.90;;;;;;;;;;4968532;28;20197;-61
2023/09/25 10:27:47;;;;;;;1999.90;999.90;;;;;;;;;;4966993;28;20537;-60
2023/09/25 10:30:17;;;;;;;1999.90;999.90;;;;;;;;;;4968362;28;20191;-68
2023/09/25 10:32:52;;;;;;;1999.90;999.90;;;;;;;;;;4967848;28;20187;-70
2023/09/25 10:35:38;;;;;;;1999.90;999.90;;;;;;;;;;4979067;28;20196;-64
2023/09/25 10:38:10;;;;;;;1999.90;999.90;;;;;;;;;;4987875;28;20201;-64
2023/09/25 10:40:38;;;;;;;1999.90;999.90;;;;;;;;;;4986470;28;20193;-63
2023/09/25 10:43:05;;;;;;;1999.90;999.90;;;;;;;;;;4987467;28;20240;-65
2023/09/25 10:45:34;;;;;;;1999.90;999.90;;;;;;;;;;4986506;28;20580;-65
2023/09/25 10:48:03;;;;;;;1999.90;999.90;;;;;;;;;;4982860;28;20190;-64
2023/09/25 10:50:30;;;;;;;1999.90;999.90;;;;;;;;;;4974820;28;20238;-64
2023/09/25 10:52:58;;;;;;;1999.90;999.90;;;;;;;;;;4967711;28;20278;-61
2023/09/25 10:55:25;;;;;;;1999.90;999.90;;;;;;;;;;4967426;28;20649;-59
2023/09/25 10:57:52;;;;;;;1999.90;999.90;;;;;;;;;;4967310;28;20195;-65
2023/09/25 11:00:20;;;;;;;1999.90;999.90;;;;;;;;;;4981097;28;20567;-63
2023/09/25 11:02:48;;;;;;;1999.90;999.90;;;;;;;;;;4986191;28;20221;-61
2023/09/25 11:05:18;;;;;;;1999.90;999.90;;;;;;;;;;4987330;28;20206;-60
2023/09/25 11:07:57;;;;;;;1999.90;999.90;;;;;;;;;;4977088;28;20518;-67
2023/09/25 11:10:28;;;;;;;1999.90;999.90;;;;;;;;;;4965821;28;20305;-62
2023/09/25 11:12:57;;;;;;;1999.90;999.90;;;;;;;;;;4967617;28;20672;-63
2023/09/25 11:15:25;;;;;;;1999.90;999.90;;;;;;;;;;4966357;28;20654;-66
2023/09/25 11:17:56;;;;;;;1999.90;999.90;;;;;;;;;;4967925;28;20193;-62
2023/09/25 11:20:30;;;;;;;1999.90;999.90;;;;;;;;;;4966485;28;20230;-64
2023/09/25 11:23:05;;;;;;;1999.90;999.90;;;;;;;;;;4967106;28;20198;-64
2023/09/25 11:25:33;;;;;;;1999.90;999.90;;;;;;;;;;4966914;28;20261;-63
2023/09/25 11:28:00;;;;;;;1999.90;999.90;;;;;;;;;;4966767;28;20597;-60
2023/09/25 11:30:30;;;;;;;1999.90;999.90;;;;;;;;;;4967562;28;20198;-61
2023/09/25 11:32:59;;;;;;;1999.90;999.90;;;;;;;;;;4948450;28;20690;-60
2023/09/25 11:35:28;;;;;;;1999.90;999.90;;;;;;;;;;4980466;28;20213;-60
2023/09/25 11:37:59;;;;;;;1999.90;999.90;;;;;;;;;;4986320;28;20743;-62
2023/09/25 11:40:27;;;;;;;1999.90;999.90;;;;;;;;;;4986322;28;20209;-60
2023/09/25 11:42:55;;;;;;;1999.90;999.90;;;;;;;;;;4985778;28;20229;-70
2023/09/25 11:45:38;;;;;;;1999.90;999.90;;;;;;;;;;4985613;28;20194;-61
2023/09/25 11:48:05;;;;;;;1999.90;999.90;;;;;;;;;;4986859;28;20201;-60
2023/09/25 11:50:34;;;;;;;1999.90;999.90;;;;;;;;;;4984136;28;20205;-58
2023/09/25 11:53:01;;;;;;;1999.90;999.90;;;;;;;;;;4986638;28;20197;-62
2023/09/25 11:55:29;;;;;;;1999.90;999.90;;;;;;;;;;4985612;28;20564;-59
2023/09/25 11:57:58;;;;;;;1999.90;999.90;;;;;;;;;;4986223;28;20284;-62
2023/09/25 12:00:27;;;;;;;1999.90;999.90;;;;;;;;;;4985875;28;20198;-62
2023/09/25 12:02:55;;;;;;;1999.90;999.90;;;;;;;;;;4985378;28;20289;-59
2023/09/25 12:05:22;;;;;;;1999.90;999.90;;;;;;;;;;4985070;28;20644;-60
2023/09/25 12:07:51;;;;;;;1999.90;999.90;;;;;;;;;;4985860;28;20194;-63
2023/09/25 12:10:19;;;;;;;1999.90;999.90;;;;;;;;;;4986226;28;20194;-62
2023/09/25 12:12:47;;;;;;;1999.90;999.90;;;;;;;;;;4983869;28;20561;-61
2023/09/25 12:15:15;;;;;;;1999.90;999.90;;;;;;;;;;4985968;28;20193;-64
2023/09/25 12:17:43;;;;;;;1999.90;999.90;;;;;;;;;;4986070;28;20220;-61
2023/09/25 12:20:13;;;;;;;1999.90;999.90;;;;;;;;;;4985689;28;20201;-63
2023/09/25 12:22:41;;;;;;;1999.90;999.90;;;;;;;;;;4985054;28;20197;-63
2023/09/25 12:25:11;;;;;;;1999.90;999.90;;;;;;;;;;4985828;28;20231;-62
2023/09/25 12:27:57;;;;;;;1999.90;999.90;;;;;;;;;;4984337;28;20202;-61
2023/09/25 12:30:57;;;;;;;1999.90;999.90;;;;;;;;;;4963922;28;20225;-66
2023/09/25 12:33:24;;;;;;;1999.90;999.90;;;;;;;;;;4981867;28;20680;-63
2023/09/25 12:35:52;;;;;;;1999.90;999.90;;;;;;;;;;4984314;28;20202;-60
2023/09/25 12:38:39;;;;;;;1999.90;999.90;;;;;;;;;;4985361;28;20216;-60
2023/09/25 12:41:08;;;;;;;1999.90;999.90;;;;;;;;;;4986178;28;20248;-61
2023/09/25 12:43:35;;;;;;;1999.90;999.90;;;;;;;;;;4985266;28;20233;-63
2023/09/25 12:46:03;;;;;;;1999.90;999.90;;;;;;;;;;4985642;28;20561;-63
2023/09/25 12:48:30;;;;;;;1999.90;999.90;;;;;;;;;;4986554;28;20321;-62
2023/09/25 12:50:57;;;;;;;1999.90;999.90;;;;;;;;;;4986082;28;20744;-62
2023/09/25 12:53:25;;;;;;;1999.90;999.90;;;;;;;;;;4986273;28;20208;-63
2023/09/25 12:55:52;;;;;;;1999.90;999.90;;;;;;;;;;4985596;28;20197;-61
2023/09/25 12:58:21;;;;;;;1999.90;999.90;;;;;;;;;;4982523;28;20209;-62
2023/09/25 13:00:47;;;;;;;1999.90;999.90;;;;;;;;;;4984545;28;20197;-64
2023/09/25 13:03:14;;;;;;;1999.90;999.90;;;;;;;;;;4985185;28;20217;-61
2023/09/25 13:05:42;;;;;;;1999.90;999.90;;;;;;;;;;4985534;28;20227;-61
2023/09/25 13:08:09;;;;;;;1999.90;999.90;;;;;;;;;;4985034;28;20217;-59
2023/09/25 13:10:36;;;;;;;1999.90;999.90;;;;;;;;;;4985980;28;20561;-60
2023/09/25 13:13:04;;;;;;;1999.90;999.90;;;;;;;;;;4985087;28;20201;-63
2023/09/25 13:15:32;;;;;;;1999.90;999.90;;;;;;;;;;4968212;28;20201;-59
2023/09/25 13:18:00;;;;;;;1999.90;999.90;;;;;;;;;;4966755;28;20216;-59
2023/09/25 13:20:27;;;;;;;1999.90;999.90;;;;;;;;;;4965821;28;20191;-61
2023/09/25 13:22:54;;;;;;;1999.90;999.90;;;;;;;;;;4967766;28;20198;-62
2023/09/25 13:25:21;;;;;;;1999.90;999.90;;;;;;;;;;4969285;28;20244;-59
2023/09/25 13:27:49;;;;;;;1999.90;999.90;;;;;;;;;;4969765;28;20208;-63
2023/09/25 13:30:18;;;;;;;1999.90;999.90;;;;;;;;;;4968962;28;20198;-65
2023/09/25 13:32:47;;;;;;;1999.90;999.90;;;;;;;;;;4969026;28;20278;-62
2023/09/25 13:35:14;;;;;;;1999.90;999.90;;;;;;;;;;4980216;28;20558;-67
2023/09/25 13:37:42;;;;;;;1999.90;999.90;;;;;;;;;;4980228;28;20190;-65
2023/09/25 13:40:13;;;;;;;1999.90;999.90;;;;;;;;;;4979359;28;20214;-63
2023/09/25 13:42:41;;;;;;;1999.90;999.90;;;;;;;;;;4981003;28;20248;-61
2023/09/25 13:45:11;;;;;;;1999.90;999.90;;;;;;;;;;4989077;28;20210;-62
2023/09/25 13:47:39;;;;;;;1999.90;999.90;;;;;;;;;;4987520;28;20301;-61